Time;durP1;ratioP1;P1;durP2;ratioP2;P2;SDS_P1;SDS_P2;PMS_P1;PMS_P2;Temp;Humidity;BMP_temperature;BMP_pressure;BME280_temperature;BME280_humidity;BME280_pressure;Samples;Min_cycle;Max_cycle;Signal;HPM_P1;HPM_P2
2021/07/29 00:00:35;;;;;;;13.10;4.43;;;;;;;18.08;72.46;99803.91;5054408;28;20059;-67
2021/07/29 00:03:02;;;;;;;6.15;3.60;;;;;;;18.10;72.19;99799.53;5054972;28;20052;-67
2021/07/29 00:05:31;;;;;;;6.85;4.60;;;;;;;18.12;73.25;99793.50;5054190;28;20053;-67
2021/07/29 00:07:59;;;;;;;6.60;3.95;;;;;;;18.12;72.54;99794.31;5054719;28;20060;-67
2021/07/29 00:10:27;;;;;;;5.00;3.70;;;;;;;18.04;73.62;99795.41;5054607;28;20056;-67
2021/07/29 00:12:56;;;;;;;4.43;3.90;;;;;;;18.02;73.40;99789.34;5041011;28;20053;-67
2021/07/29 00:15:25;;;;;;;6.95;4.18;;;;;;;18.00;73.68;99786.09;5040098;28;20471;-67
2021/07/29 00:20:39;;;;;;;5.05;3.70;;;;;;;18.05;72.26;99788.56;5059847;28;20061;-67
2021/07/29 00:23:06;;;;;;;7.47;3.70;;;;;;;17.82;73.97;99785.81;5054662;28;20049;-67
2021/07/29 00:25:33;;;;;;;6.30;3.75;;;;;;;17.94;74.15;99787.63;5053019;28;20462;-67
2021/07/29 00:28:02;;;;;;;6.65;3.72;;;;;;;17.97;73.99;99795.31;5053667;28;20409;-67
2021/07/29 00:30:30;;;;;;;5.43;4.13;;;;;;;17.80;73.86;99786.19;5054090;28;20060;-67
2021/07/29 00:32:58;;;;;;;10.27;4.35;;;;;;;17.76;74.29;99785.31;5053942;28;20053;-67
2021/07/29 00:35:25;;;;;;;18.48;5.25;;;;;;;17.49;76.52;99780.88;5053644;28;20164;-67
2021/07/29 00:38:00;;;;;;;8.13;4.90;;;;;;;17.28;78.80;99770.91;5054120;28;20056;-68
2021/07/29 00:40:28;;;;;;;10.07;6.30;;;;;;;17.32;78.00;99760.50;5053585;28;20457;-68
2021/07/29 00:42:55;;;;;;;8.90;5.97;;;;;;;17.31;78.54;99770.16;5053402;28;20057;-68
2021/07/29 00:45:24;;;;;;;8.30;5.70;;;;;;;17.51;78.14;99770.06;5053771;28;20379;-68
2021/07/29 00:47:51;;;;;;;7.53;5.28;;;;;;;17.57;78.18;99776.97;5038933;28;20061;-68
2021/07/29 00:50:19;;;;;;;7.95;5.35;;;;;;;17.62;77.70;99776.69;5033452;28;20058;-68
2021/07/29 00:52:48;;;;;;;9.52;5.82;;;;;;;17.73;77.73;99780.47;5034197;28;20065;-68
2021/07/29 00:55:18;;;;;;;9.73;5.20;;;;;;;17.78;76.67;99771.66;5033724;28;20486;-68
2021/07/29 00:57:45;;;;;;;8.32;5.30;;;;;;;17.67;76.94;99773.53;5048359;28;20048;-68
2021/07/29 01:00:17;;;;;;;9.77;5.18;;;;;;;17.69;77.34;99759.88;5054135;28;20049;-68
2021/07/29 01:02:45;;;;;;;9.02;5.13;;;;;;;17.78;77.07;99754.75;5053646;28;20048;-68
2021/07/29 01:05:13;;;;;;;7.77;5.37;;;;;;;17.83;76.60;99760.13;5053689;28;20441;-68
2021/07/29 01:07:40;;;;;;;7.90;5.20;;;;;;;17.88;75.96;99755.34;5053358;28;20075;-68
2021/07/29 01:10:08;;;;;;;7.43;6.10;;;;;;;17.82;76.39;99755.66;5052341;28;20057;-68
2021/07/29 01:12:35;;;;;;;7.20;4.95;;;;;;;17.80;76.39;99741.09;5052757;28;20469;-68
2021/07/29 01:15:04;;;;;;;7.78;4.95;;;;;;;17.75;76.38;99747.09;5053543;28;20053;-68
2021/07/29 01:17:33;;;;;;;7.40;4.70;;;;;;;17.79;75.36;99742.31;5053044;28;20061;-68
2021/07/29 01:20:02;;;;;;;6.63;4.75;;;;;;;17.63;75.83;99741.69;5053444;28;20053;-68
2021/07/29 01:22:33;;;;;;;7.03;4.70;;;;;;;17.67;75.76;99741.75;5053265;28;20054;-68
2021/07/29 01:25:00;;;;;;;7.15;5.00;;;;;;;17.65;75.99;99754.19;5052469;28;20481;-68
2021/07/29 01:27:31;;;;;;;6.10;4.85;;;;;;;17.70;76.46;99749.41;5053130;28;20110;-68
2021/07/29 01:30:00;;;;;;;5.70;4.20;;;;;;;17.83;76.56;99767.75;5053721;28;20068;-68
2021/07/29 01:32:29;;;;;;;7.72;4.90;;;;;;;17.90;76.33;99761.41;5053459;28;20057;-68
2021/07/29 01:34:57;;;;;;;8.63;4.85;;;;;;;17.80;75.72;99774.91;5053133;28;20409;-68
2021/07/29 01:37:25;;;;;;;7.60;5.00;;;;;;;17.84;75.71;99786.28;5053272;28;20052;-68
2021/07/29 01:39:53;;;;;;;9.80;5.85;;;;;;;17.63;77.31;99783.91;5052391;28;20500;-68
2021/07/29 01:42:21;;;;;;;7.90;5.23;;;;;;;17.27;77.81;99774.91;5053071;28;20484;-68
2021/07/29 01:44:48;;;;;;;6.95;5.35;;;;;;;17.28;78.12;99759.63;5052897;28;20471;-68
2021/07/29 01:47:15;;;;;;;8.07;4.82;;;;;;;17.18;77.65;99760.31;5053182;28;20053;-68
2021/07/29 01:49:43;;;;;;;6.00;4.75;;;;;;;17.07;78.32;99765.72;5052463;28;20080;-68
2021/07/29 01:52:10;;;;;;;6.45;5.03;;;;;;;16.96;77.43;99768.34;5053015;28;20057;-68
2021/07/29 01:54:37;;;;;;;5.63;3.97;;;;;;;16.96;76.80;99771.16;5051035;28;20055;-68
2021/07/29 01:57:08;;;;;;;7.22;5.10;;;;;;;17.13;77.59;99769.03;5052677;28;20402;-69
2021/07/29 01:59:36;;;;;;;5.88;4.63;;;;;;;17.08;76.69;99763.75;5052636;28;20056;-68
2021/07/29 02:02:04;;;;;;;7.68;4.60;;;;;;;16.94;76.79;99764.28;5053012;28;20482;-68
2021/07/29 02:04:32;;;;;;;8.27;4.60;;;;;;;17.08;76.27;99758.13;5052589;28;20053;-68
2021/07/29 02:06:59;;;;;;;7.25;4.30;;;;;;;17.02;76.29;99754.78;5053129;28;20409;-68
2021/07/29 02:09:26;;;;;;;6.68;4.55;;;;;;;17.00;76.30;99752.34;5051383;28;20049;-68
2021/07/29 02:11:54;;;;;;;4.90;3.90;;;;;;;16.90;76.05;99760.59;5051398;28;20049;-68
2021/07/29 02:14:24;;;;;;;6.72;4.07;;;;;;;17.07;75.21;99750.84;5052925;28;20048;-68
2021/07/29 02:16:51;;;;;;;4.50;3.70;;;;;;;16.98;74.98;99746.28;5052865;28;20489;-68
2021/07/29 02:19:18;;;;;;;5.20;3.15;;;;;;;16.86;73.76;99752.09;5052786;28;20052;-68
2021/07/29 02:21:45;;;;;;;6.65;4.05;;;;;;;16.80;75.33;99750.78;5052632;28;20056;-68
2021/07/29 02:24:13;;;;;;;4.68;3.53;;;;;;;16.88;74.11;99748.91;5051607;28;20049;-68
2021/07/29 02:26:40;;;;;;;6.60;3.10;;;;;;;16.67;74.54;99752.94;5052417;28;20401;-68
2021/07/29 02:29:08;;;;;;;4.47;2.90;;;;;;;16.53;74.03;99764.75;5052756;28;20057;-68
2021/07/29 02:31:36;;;;;;;3.78;3.05;;;;;;;16.50;72.85;99748.59;5052394;28;20060;-68
2021/07/29 02:34:04;;;;;;;4.75;3.30;;;;;;;16.46;74.64;99747.72;5052308;28;20056;-68
2021/07/29 02:36:31;;;;;;;4.18;2.78;;;;;;;16.44;74.43;99748.13;5052509;28;20060;-68
2021/07/29 02:38:58;;;;;;;5.90;2.80;;;;;;;16.46;74.56;99747.72;5051192;28;20152;-68
2021/07/29 02:41:25;;;;;;;4.03;2.65;;;;;;;16.52;73.84;99756.66;5052164;28;20402;-68
2021/07/29 02:43:53;;;;;;;4.68;2.20;;;;;;;16.34;74.05;99745.09;5052376;28;20056;-68
2021/07/29 02:46:20;;;;;;;6.10;2.75;;;;;;;16.48;74.05;99744.53;5052678;28;20053;-68
2021/07/29 02:48:49;;;;;;;4.05;2.70;;;;;;;16.48;73.97;99744.53;5051766;28;20049;-68
2021/07/29 02:51:16;;;;;;;4.23;3.27;;;;;;;16.64;73.65;99746.06;5052199;28;20482;-68
2021/07/29 02:53:50;;;;;;;3.72;2.47;;;;;;;16.51;72.44;99744.63;5050649;28;20482;-68
2021/07/29 02:56:17;;;;;;;7.50;2.95;;;;;;;16.53;72.86;99741.44;5052547;28;20060;-68
2021/07/29 02:58:47;;;;;;;5.45;2.45;;;;;;;16.64;73.34;99748.06;5051791;28;20056;-68
2021/07/29 03:01:15;;;;;;;5.65;2.60;;;;;;;16.56;72.40;99744.28;5051825;28;20057;-68
2021/07/29 03:03:43;;;;;;;4.53;2.72;;;;;;;16.57;73.69;99743.13;5051915;28;20093;-68
2021/07/29 03:06:13;;;;;;;5.07;2.47;;;;;;;16.64;72.50;99753.69;5051754;28;20057;-68
2021/07/29 03:08:40;;;;;;;5.32;2.83;;;;;;;16.65;72.55;99749.69;5050805;28;20055;-68
2021/07/29 03:11:10;;;;;;;4.13;2.65;;;;;;;16.66;72.70;99745.69;5051412;28;20060;-68
2021/07/29 03:13:37;;;;;;;4.03;2.70;;;;;;;16.60;73.04;99744.38;5051849;28;20387;-69
2021/07/29 03:16:05;;;;;;;4.55;2.90;;;;;;;16.63;73.05;99747.25;5038533;28;20420;-69
2021/07/29 03:18:33;;;;;;;5.68;3.00;;;;;;;16.50;73.21;99750.59;5040070;28;20119;-70
2021/07/29 03:21:00;;;;;;;4.75;3.10;;;;;;;16.57;72.71;99745.94;5052155;28;20064;-70
2021/07/29 03:23:29;;;;;;;5.15;3.03;;;;;;;16.63;72.60;99749.25;5050376;28;20060;-70
2021/07/29 03:25:56;;;;;;;4.87;3.07;;;;;;;16.54;72.70;99748.69;5032217;28;20064;-70
2021/07/29 03:28:23;;;;;;;8.75;2.83;;;;;;;16.53;72.98;99747.88;5032034;28;20045;-69
2021/07/29 03:30:51;;;;;;;5.53;2.88;;;;;;;16.43;73.17;99742.84;5032102;28;20502;-69
2021/07/29 03:33:19;;;;;;;6.25;3.10;;;;;;;16.38;73.58;99743.16;5034147;28;20045;-69
2021/07/29 03:35:46;;;;;;;6.22;2.92;;;;;;;16.34;73.33;99745.09;5035407;28;20057;-69
2021/07/29 03:38:14;;;;;;;4.13;2.92;;;;;;;16.46;72.63;99758.97;5041327;28;20045;-68
2021/07/29 03:40:43;;;;;;;5.30;2.85;;;;;;;16.44;72.38;99761.31;5034997;28;20065;-68
2021/07/29 03:43:11;;;;;;;5.63;3.00;;;;;;;16.43;72.24;99752.09;5035670;28;20061;-68
2021/07/29 03:45:43;;;;;;;5.43;2.60;;;;;;;16.44;72.74;99756.53;5046662;28;20049;-68
2021/07/29 03:48:10;;;;;;;5.03;2.67;;;;;;;16.48;72.08;99762.22;5050792;28;20478;-68
2021/07/29 03:50:39;;;;;;;4.72;2.70;;;;;;;16.46;71.88;99758.97;5055030;28;20049;-67
2021/07/29 03:53:07;;;;;;;4.93;2.90;;;;;;;16.51;72.05;99755.06;5055318;28;20079;-67
2021/07/29 03:55:34;;;;;;;6.47;2.83;;;;;;;16.50;71.63;99765.47;5054870;28;20053;-67
2021/07/29 03:58:03;;;;;;;4.10;2.80;;;;;;;16.57;71.44;99770.44;5054470;28;20056;-68
2021/07/29 04:00:31;;;;;;;5.68;2.58;;;;;;;16.48;71.95;99765.03;5054751;28;20057;-68
2021/07/29 04:02:59;;;;;;;5.72;3.20;;;;;;;16.46;72.21;99778.63;5054606;28;20068;-68
2021/07/29 04:05:26;;;;;;;6.28;3.30;;;;;;;16.43;72.36;99774.56;5054651;28;20049;-68
2021/07/29 04:07:54;;;;;;;5.97;3.15;;;;;;;16.46;72.55;99764.59;5054636;28;20049;-68
2021/07/29 04:10:21;;;;;;;5.47;3.15;;;;;;;16.56;71.77;99754.75;5054308;28;20079;-68
2021/07/29 04:12:49;;;;;;;7.30;3.30;;;;;;;16.51;71.85;99764.28;5053775;28;20053;-68
2021/07/29 04:15:18;;;;;;;7.45;2.72;;;;;;;16.61;71.80;99760.88;5053855;28;20053;-68
2021/07/29 04:17:45;;;;;;;6.27;3.10;;;;;;;16.63;71.65;99761.31;5054893;28;20052;-68
2021/07/29 04:20:12;;;;;;;8.50;3.53;;;;;;;16.73;71.71;99762.69;5054217;28;20471;-68
2021/07/29 04:22:40;;;;;;;7.47;3.72;;;;;;;16.73;71.05;99753.44;5054313;28;20049;-68
2021/07/29 04:25:08;;;;;;;7.97;3.00;;;;;;;16.79;71.15;99751.94;5053049;28;20060;-68
2021/07/29 04:27:35;;;;;;;7.35;3.40;;;;;;;16.62;71.80;99754.06;5054211;28;20060;-69
2021/07/29 04:30:02;;;;;;;6.00;3.60;;;;;;;16.55;72.06;99745.50;5054602;28;20524;-68
2021/07/29 04:32:35;;;;;;;6.00;3.33;;;;;;;16.71;71.85;99758.63;5054853;28;20513;-69
2021/07/29 04:35:03;;;;;;;6.07;3.15;;;;;;;16.63;71.96;99752.06;5054123;28;20060;-68
2021/07/29 04:37:30;;;;;;;4.47;3.25;;;;;;;16.73;71.76;99759.06;5054650;28;20111;-68
2021/07/29 04:39:57;;;;;;;5.22;3.30;;;;;;;16.71;72.04;99758.63;5053330;28;20119;-69
2021/07/29 04:42:25;;;;;;;7.43;3.58;;;;;;;16.82;71.68;99763.31;5054578;28;20462;-69
2021/07/29 04:44:52;;;;;;;8.38;3.63;;;;;;;16.80;71.76;99760.06;5054038;28;20056;-69
2021/07/29 04:47:19;;;;;;;6.45;3.70;;;;;;;16.80;71.76;99753.59;5054263;28;20486;-69
2021/07/29 04:49:48;;;;;;;8.10;3.78;;;;;;;16.80;71.56;99746.00;5054123;28;20056;-69
2021/07/29 04:52:16;;;;;;;6.78;3.15;;;;;;;16.73;71.89;99750.63;5053447;28;20509;-69
2021/07/29 04:54:43;;;;;;;5.70;3.38;;;;;;;16.83;72.14;99752.84;5052379;28;20053;-69
2021/07/29 04:57:10;;;;;;;5.90;3.42;;;;;;;17.06;71.66;99752.84;5054622;28;20101;-69
2021/07/29 04:59:40;;;;;;;7.05;3.67;;;;;;;17.15;71.41;99747.78;5054041;28;20063;-69
2021/07/29 05:02:07;;;;;;;7.82;3.53;;;;;;;17.14;71.00;99753.81;5054506;28;20053;-69
2021/07/29 05:04:34;;;;;;;6.88;3.17;;;;;;;17.28;70.29;99764.47;5053855;28;20048;-69
2021/07/29 05:07:03;;;;;;;6.43;3.20;;;;;;;17.38;69.99;99758.19;5054322;28;20067;-69
2021/07/29 05:09:31;;;;;;;6.15;3.65;;;;;;;17.22;70.56;99766.81;5053053;28;20053;-69
2021/07/29 05:11:58;;;;;;;5.30;2.90;;;;;;;17.43;69.58;99774.78;5050294;28;20398;-69
2021/07/29 05:14:26;;;;;;;6.63;3.28;;;;;;;17.34;69.81;99763.75;5053566;28;20053;-69
2021/07/29 05:16:57;;;;;;;6.10;2.78;;;;;;;17.30;69.19;99781.78;5052813;28;20049;-69
2021/07/29 05:19:24;;;;;;;4.97;2.90;;;;;;;17.24;69.85;99765.22;5053465;28;20064;-69
2021/07/29 05:21:52;;;;;;;6.38;3.25;;;;;;;17.40;69.41;99778.34;5050156;28;20053;-69
2021/07/29 05:24:21;;;;;;;8.57;3.33;;;;;;;17.42;68.79;99782.38;5042817;28;20512;-69
2021/07/29 05:26:48;;;;;;;7.00;2.70;;;;;;;17.58;68.61;99773.81;5053704;28;20060;-69
2021/07/29 05:29:16;;;;;;;6.07;3.35;;;;;;;17.63;68.13;99793.19;5052221;28;20048;-69
2021/07/29 05:31:43;;;;;;;8.88;2.80;;;;;;;17.52;67.68;99785.78;5051706;28;20052;-69
2021/07/29 05:34:12;;;;;;;5.10;2.50;;;;;;;17.47;68.38;99791.72;5052803;28;20383;-69
2021/07/29 05:36:39;;;;;;;7.03;3.20;;;;;;;17.58;68.32;99798.34;5052792;28;20053;-69
2021/07/29 05:39:07;;;;;;;6.00;2.78;;;;;;;17.49;68.08;99786.50;5053308;28;20048;-69
2021/07/29 05:41:37;;;;;;;4.03;2.73;;;;;;;17.63;67.83;99795.19;5052626;28;20409;-69
2021/07/29 05:44:04;;;;;;;7.18;3.03;;;;;;;17.64;67.37;99799.66;5053104;28;20057;-69
2021/07/29 05:46:32;;;;;;;6.00;2.95;;;;;;;17.74;67.07;99796.16;5052438;28;20060;-69
2021/07/29 05:49:01;;;;;;;5.00;2.38;;;;;;;17.85;67.42;99799.97;5052648;28;20053;-69
2021/07/29 05:51:28;;;;;;;4.82;2.88;;;;;;;17.57;68.43;99799.50;5053385;28;20056;-69
2021/07/29 05:53:56;;;;;;;5.75;2.60;;;;;;;17.61;67.36;99803.19;5053278;28;20489;-69
2021/07/29 05:56:23;;;;;;;5.70;2.60;;;;;;;17.81;66.21;99796.28;5052860;28;20390;-68
2021/07/29 05:58:52;;;;;;;5.72;3.05;;;;;;;17.83;66.60;99790.28;5046741;28;20049;-68
2021/07/29 06:01:20;;;;;;;5.87;2.33;;;;;;;17.86;65.73;99795.16;5035185;28;20061;-69
2021/07/29 06:03:48;;;;;;;7.00;3.33;;;;;;;17.65;66.39;99795.63;5052485;28;21041;-69
2021/07/29 06:06:15;;;;;;;5.95;2.40;;;;;;;17.87;65.80;99785.53;5050829;28;20037;-68
2021/07/29 06:08:43;;;;;;;4.95;2.83;;;;;;;17.58;66.92;99799.16;5052867;28;20044;-50
2021/07/29 06:11:11;;;;;;;5.85;2.38;;;;;;;17.22;67.14;99807.00;5041023;28;20061;-48
2021/07/29 06:13:38;;;;;;;6.22;2.60;;;;;;;17.28;66.22;99804.66;5032964;28;20053;-49
2021/07/29 06:16:09;;;;;;;6.25;2.10;;;;;;;17.27;65.54;99803.06;5038316;28;20064;-51
2021/07/29 06:18:42;;;;;;;5.13;2.78;;;;;;;17.18;66.04;99802.50;5052927;28;20414;-50
2021/07/29 06:21:11;;;;;;;5.63;2.20;;;;;;;17.43;65.03;99817.81;5053014;28;20063;-67
2021/07/29 06:23:38;;;;;;;7.88;2.53;;;;;;;17.78;64.59;99794.19;5049791;28;20051;-67
2021/07/29 06:26:06;;;;;;;5.18;2.00;;;;;;;18.19;63.01;99804.88;5049644;28;20049;-67
2021/07/29 06:28:34;;;;;;;7.53;2.38;;;;;;;18.26;62.49;99797.31;5052274;28;20061;-67
2021/07/29 06:31:02;;;;;;;6.70;3.05;;;;;;;18.49;62.24;99802.03;5051752;28;20056;-67
2021/07/29 06:33:30;;;;;;;7.03;2.42;;;;;;;18.61;61.90;99807.41;5052551;28;20052;-67
2021/07/29 06:36:01;;;;;;;6.95;3.22;;;;;;;18.42;61.75;99794.28;5052463;28;20064;-67
2021/07/29 06:38:28;;;;;;;4.55;2.10;;;;;;;18.32;62.44;99796.97;5051072;28;20049;-67
2021/07/29 06:40:55;;;;;;;5.13;2.10;;;;;;;18.43;61.30;99801.53;5051325;28;20406;-67
2021/07/29 06:43:23;;;;;;;6.63;2.00;;;;;;;18.49;62.24;99816.13;5052741;28;20052;-67
2021/07/29 06:45:50;;;;;;;4.30;2.20;;;;;;;18.53;60.15;99810.53;5051812;28;20056;-67
2021/07/29 06:48:18;;;;;;;6.18;2.03;;;;;;;18.77;60.28;99810.00;5052458;28;20057;-67
2021/07/29 06:50:46;;;;;;;8.05;2.83;;;;;;;18.91;59.95;99812.19;5052198;28;20052;-67
2021/07/29 06:53:14;;;;;;;4.28;1.90;;;;;;;18.98;59.98;99817.09;5052290;28;20056;-67
2021/07/29 06:55:41;;;;;;;6.57;2.10;;;;;;;19.34;57.86;99814.59;5051021;28;20381;-67
2021/07/29 06:58:09;;;;;;;6.82;1.90;;;;;;;19.34;57.19;99812.59;5052629;28;20056;-67
2021/07/29 07:00:36;;;;;;;7.45;2.03;;;;;;;19.67;55.35;99819.31;5052482;28;20049;-67
2021/07/29 07:03:03;;;;;;;5.78;2.10;;;;;;;19.60;56.31;99811.59;5051920;28;20413;-67
2021/07/29 07:05:31;;;;;;;9.57;2.30;;;;;;;19.89;55.62;99820.31;5050866;28;20064;-66
2021/07/29 07:08:00;;;;;;;8.68;2.78;;;;;;;20.05;55.82;99819.97;5044222;28;20044;-66
2021/07/29 07:10:32;;;;;;;4.78;1.65;;;;;;;20.02;54.31;99820.78;5054088;28;20057;-66
2021/07/29 07:13:00;;;;;;;5.32;2.08;;;;;;;20.44;53.42;99820.19;5053223;28;20417;-66
2021/07/29 07:15:27;;;;;;;4.75;1.90;;;;;;;20.09;53.42;99823.66;5054441;28;20498;-66
2021/07/29 07:17:56;;;;;;;3.53;1.90;;;;;;;19.94;52.27;99821.94;5047387;28;20049;-66
2021/07/29 07:20:24;;;;;;;3.97;1.60;;;;;;;19.64;53.35;99822.94;5045795;28;20060;-66
2021/07/29 07:22:52;;;;;;;6.85;2.05;;;;;;;19.64;53.63;99840.69;5048649;28;20053;-66
2021/07/29 07:25:21;;;;;;;6.75;2.25;;;;;;;19.89;53.79;99831.63;5051664;28;20406;-66
2021/07/29 07:27:48;;;;;;;6.80;1.80;;;;;;;19.87;53.43;99834.81;5049448;28;20406;-66
2021/07/29 07:30:16;;;;;;;4.30;1.80;;;;;;;20.23;52.84;99837.88;5053737;28;20053;-66
2021/07/29 07:32:43;;;;;;;5.13;1.60;;;;;;;20.15;52.41;99836.19;5053622;28;20049;-65
2021/07/29 07:35:11;;;;;;;10.77;2.47;;;;;;;19.94;52.22;99836.09;5053493;28;20064;-65
2021/07/29 07:37:42;;;;;;;6.22;1.70;;;;;;;20.02;51.95;99844.22;5054303;28;20057;-65
2021/07/29 07:40:10;;;;;;;6.18;2.25;;;;;;;20.27;51.18;99830.22;5049174;28;20406;-65
2021/07/29 07:42:39;;;;;;;5.23;1.70;;;;;;;20.75;51.14;99834.91;5053744;28;20055;-65
2021/07/29 07:45:07;;;;;;;6.03;1.80;;;;;;;21.20;49.16;99829.72;5053386;28;20413;-65
2021/07/29 07:47:35;;;;;;;5.43;1.77;;;;;;;21.88;47.61;99837.44;5053635;28;20090;-65
2021/07/29 07:50:04;;;;;;;4.50;1.67;;;;;;;22.55;44.76;99835.66;5053687;28;20067;-65
2021/07/29 07:52:31;;;;;;;5.15;1.80;;;;;;;22.28;44.47;99832.53;5053599;28;20053;-65
2021/07/29 07:54:59;;;;;;;6.10;1.92;;;;;;;22.85;44.13;99842.84;5053162;28;20520;-65
2021/07/29 07:57:26;;;;;;;3.55;1.60;;;;;;;23.38;42.95;99841.69;5045503;28;20470;-65
2021/07/29 07:59:58;;;;;;;4.32;1.40;;;;;;;23.56;40.72;99824.50;5053531;28;20057;-65
2021/07/29 08:02:26;;;;;;;3.72;1.50;;;;;;;23.08;41.66;99837.44;5051954;28;20053;-65
2021/07/29 08:04:54;;;;;;;5.93;1.63;;;;;;;24.24;40.12;99829.53;5052211;28;20056;-65
2021/07/29 08:07:21;;;;;;;4.53;1.50;;;;;;;25.07;38.29;99832.19;5049208;28;20057;-66
2021/07/29 08:09:49;;;;;;;3.78;1.40;;;;;;;26.18;35.44;99826.66;5053832;28;20478;-66
2021/07/29 08:12:16;;;;;;;5.38;1.60;;;;;;;26.77;34.31;99833.63;5047919;28;20056;-66
2021/07/29 08:14:44;;;;;;;5.25;2.00;;;;;;;26.67;35.15;99824.06;5053137;28;20478;-65
2021/07/29 08:17:13;;;;;;;3.95;1.35;;;;;;;26.29;34.49;99844.41;5051393;28;20064;-65
2021/07/29 08:19:40;;;;;;;3.47;1.30;;;;;;;25.64;36.33;99843.91;5052858;28;20417;-65
2021/07/29 08:22:08;;;;;;;6.00;1.48;;;;;;;25.31;37.53;99838.75;5052766;28;20482;-65
2021/07/29 08:24:36;;;;;;;4.05;1.45;;;;;;;25.08;37.58;99848.03;5053487;28;20064;-65
2021/07/29 08:27:03;;;;;;;3.20;1.40;;;;;;;24.03;39.61;99841.16;5048150;28;20053;-65
2021/07/29 08:29:31;;;;;;;5.75;1.60;;;;;;;22.54;42.58;99842.56;5053502;28;20060;-65
2021/07/29 08:31:58;;;;;;;6.75;1.70;;;;;;;22.45;42.92;99837.34;5052690;28;20045;-65
2021/07/29 08:34:29;;;;;;;7.20;1.90;;;;;;;23.26;40.43;99831.63;5046192;28;20060;-65
2021/07/29 08:36:56;;;;;;;6.40;1.90;;;;;;;23.25;40.86;99837.75;5051084;28;20052;-65
2021/07/29 08:39:24;;;;;;;4.63;2.15;;;;;;;25.09;37.61;99837.41;5053496;28;20069;-65
2021/07/29 08:41:52;;;;;;;5.20;1.70;;;;;;;26.49;34.15;99852.16;5048256;28;20398;-65
2021/07/29 08:44:20;;;;;;;5.30;1.90;;;;;;;27.61;32.81;99821.91;5052796;28;20057;-65
2021/07/29 08:46:50;;;;;;;3.50;1.63;;;;;;;28.99;30.98;99838.53;5052598;28;20053;-65
2021/07/29 08:49:17;;;;;;;4.97;1.92;;;;;;;29.09;29.71;99840.28;5052409;28;20049;-65
2021/07/29 08:51:47;;;;;;;5.30;1.77;;;;;;;30.11;27.41;99838.56;5050763;28;20596;-65
2021/07/29 08:54:15;;;;;;;5.68;2.10;;;;;;;30.86;27.04;99837.88;5042224;28;20052;-66
2021/07/29 08:56:42;;;;;;;6.47;1.92;;;;;;;31.88;25.70;99828.41;5051700;28;20060;-65
2021/07/29 08:59:12;;;;;;;5.00;1.83;;;;;;;32.79;24.11;99828.09;5052317;28;20120;-65
2021/07/29 09:01:41;;;;;;;3.92;1.77;;;;;;;31.36;26.12;99818.66;5050278;28;20060;-65
2021/07/29 09:04:12;;;;;;;4.85;1.70;;;;;;;30.30;27.03;99830.94;5052230;28;20082;-65
2021/07/29 09:06:59;;;;;;;4.60;1.80;;;;;;;29.88;27.70;99840.63;5050747;28;20056;-65
2021/07/29 09:09:39;;;;;;;3.60;1.60;;;;;;;29.05;28.05;99839.59;5050333;28;20051;-65
2021/07/29 09:12:17;;;;;;;6.65;2.20;;;;;;;29.71;27.48;99839.16;5050917;28;20057;-65
2021/07/29 09:14:46;;;;;;;4.50;1.48;;;;;;;28.49;28.84;99837.16;5052261;28;20052;-65
2021/07/29 09:17:14;;;;;;;4.63;1.60;;;;;;;29.38;28.22;99836.53;5050270;28;20879;-65
2021/07/29 09:19:42;;;;;;;3.30;1.27;;;;;;;29.22;27.28;99850.97;5051820;28;20053;-64
2021/07/29 09:22:16;;;;;;;6.25;1.70;;;;;;;29.35;27.82;99846.84;5051727;28;20048;-64
2021/07/29 09:25:02;;;;;;;3.70;1.67;;;;;;;29.72;27.57;99843.63;5046512;28;20431;-64
2021/07/29 09:27:42;;;;;;;4.88;1.60;;;;;;;30.44;26.33;99847.66;5042902;28;20053;-64
2021/07/29 09:30:11;;;;;;;5.10;1.70;;;;;;;29.61;27.39;99854.63;5050252;28;20049;-64
2021/07/29 09:32:55;;;;;;;6.63;1.98;;;;;;;31.47;24.85;99841.25;5047162;28;20053;-65
2021/07/29 09:35:35;;;;;;;4.18;1.83;;;;;;;32.71;23.49;99839.97;5051424;28;20061;-64
2021/07/29 09:38:06;;;;;;;4.05;1.90;;;;;;;33.05;22.92;99840.03;5050400;28;20064;-64
2021/07/29 09:40:45;;;;;;;5.07;1.95;;;;;;;35.03;20.86;99837.25;5049226;28;20474;-64
2021/07/29 09:43:15;;;;;;;4.00;1.60;;;;;;;34.85;20.90;99838.25;5048155;28;21163;-64
2021/07/29 09:45:44;;;;;;;4.18;1.60;;;;;;;32.78;22.84;99844.63;5051464;28;20060;-64
2021/07/29 09:48:11;;;;;;;;;;;;;;;32.03;23.77;99843.03;5051692;28;20048;-64
2021/07/29 09:50:40;;;;;;;3.92;1.40;;;;;;;31.22;25.00;99850.88;5051859;28;19927;-64
2021/07/29 09:53:08;;;;;;;;;;;;;;;32.88;23.72;99842.50;5051267;28;20079;-64
2021/07/29 09:55:36;;;;;;;3.53;1.67;;;;;;;33.16;23.10;99846.94;5051622;28;20274;-64
2021/07/29 09:58:04;;;;;;;5.93;2.00;;;;;;;34.03;21.54;99848.41;5045363;28;20137;-64
2021/07/29 10:00:35;;;;;;;3.85;1.90;;;;;;;35.54;19.10;99826.50;5052025;28;20479;-64
2021/07/29 10:03:05;;;;;;;3.75;1.70;;;;;;;36.68;18.28;99824.53;5043356;28;20064;-64
2021/07/29 10:05:43;;;;;;;4.95;1.60;;;;;;;35.97;19.16;99839.25;5051458;28;20544;-64
2021/07/29 10:08:21;;;;;;;4.60;2.58;;;;;;;36.69;18.29;99831.16;5049852;28;20044;-64
2021/07/29 10:10:51;;;;;;;5.72;1.38;;;;;;;34.19;19.53;99845.13;5048482;28;20053;-64
2021/07/29 10:13:18;;;;;;;4.57;1.58;;;;;;;33.83;20.37;99841.19;5049858;28;20052;-64
2021/07/29 10:15:47;;;;;;;4.70;1.60;;;;;;;32.33;21.43;99841.25;5050330;28;20049;-64
2021/07/29 10:18:18;;;;;;;6.07;1.75;;;;;;;34.80;19.83;99838.13;5047592;28;20057;-64
2021/07/29 10:20:45;;;;;;;5.88;1.35;;;;;;;32.76;21.60;99855.84;5047332;28;20069;-64
2021/07/29 10:23:34;;;;;;;4.30;1.70;;;;;;;35.13;19.34;99837.91;5043170;28;20499;-64
2021/07/29 10:26:12;;;;;;;3.50;1.77;;;;;;;35.68;18.23;99848.03;5050535;28;20048;-64
2021/07/29 10:28:40;;;;;;;3.83;1.95;;;;;;;35.66;18.00;99845.66;5051600;28;20060;-65
2021/07/29 10:31:13;;;;;;;5.15;1.30;;;;;;;34.24;20.32;99847.31;5051430;28;20052;-65
2021/07/29 10:33:42;;;;;;;5.00;2.08;;;;;;;34.23;20.38;99847.81;5045599;28;20060;-65
2021/07/29 10:36:42;;;;;;;3.78;1.17;;;;;;;33.29;21.17;99860.38;5049923;28;20378;-65
2021/07/29 10:39:11;;;;;;;4.43;1.38;;;;;;;31.19;23.38;99852.63;5042194;28;20059;-65
2021/07/29 10:41:55;;;;;;;7.38;1.50;;;;;;;30.59;24.56;99858.63;5051605;28;20060;-65
2021/07/29 10:44:48;;;;;;;3.80;1.38;;;;;;;29.74;25.56;99866.94;5053939;28;20052;-65
2021/07/29 10:47:34;;;;;;;4.28;1.55;;;;;;;29.80;25.10;99859.34;5057441;28;20045;-65
2021/07/29 10:50:20;;;;;;;3.35;1.20;;;;;;;28.44;26.69;99866.38;5057640;28;20052;-65
2021/07/29 10:52:53;;;;;;;5.20;2.08;;;;;;;29.01;26.10;99869.63;5057214;28;20060;-65
2021/07/29 10:55:23;;;;;;;4.85;1.90;;;;;;;30.64;24.22;99853.09;5050508;28;20052;-64
2021/07/29 10:58:11;;;;;;;3.65;1.63;;;;;;;32.65;22.57;99858.41;5058204;28;20064;-64
2021/07/29 11:00:39;;;;;;;6.53;1.93;;;;;;;34.72;19.35;99858.00;5052425;28;20053;-64
2021/07/29 11:03:22;;;;;;;3.13;1.90;;;;;;;35.08;18.32;99841.53;5058087;28;20459;-70
2021/07/29 11:06:02;;;;;;;6.57;2.05;;;;;;;35.44;18.69;99848.19;5055087;28;20057;-65
2021/07/29 11:08:30;;;;;;;3.35;1.67;;;;;;;35.21;18.07;99849.94;5057937;28;20049;-65
2021/07/29 11:11:00;;;;;;;5.88;2.08;;;;;;;35.21;18.39;99847.03;5056708;28;20136;-65
2021/07/29 11:13:29;;;;;;;6.05;1.27;;;;;;;33.43;20.05;99865.44;5056519;28;20060;-65
2021/07/29 11:15:59;;;;;;;4.70;1.80;;;;;;;33.83;19.75;99863.47;5057411;28;20060;-65
2021/07/29 11:18:27;;;;;;;4.28;1.50;;;;;;;31.86;22.15;99845.38;5057188;28;20053;-65
2021/07/29 11:20:54;;;;;;;4.90;1.70;;;;;;;30.62;23.64;99851.97;5057143;28;20057;-65
2021/07/29 11:23:34;;;;;;;3.95;1.42;;;;;;;29.62;24.86;99870.59;5057065;28;20075;-65
2021/07/29 11:26:05;;;;;;;3.88;1.40;;;;;;;28.83;25.97;99859.53;5055673;28;20063;-64
2021/07/29 11:28:33;;;;;;;3.90;1.50;;;;;;;28.87;26.18;99870.84;5053777;28;20080;-64
2021/07/29 11:31:02;;;;;;;4.20;2.05;;;;;;;30.29;24.82;99864.63;5054290;28;20052;-64
2021/07/29 11:33:30;;;;;;;6.68;2.30;;;;;;;32.23;23.38;99856.94;5049888;28;20060;-64
2021/07/29 11:36:07;;;;;;;5.80;1.63;;;;;;;31.78;22.58;99869.19;5056384;28;20056;-65
2021/07/29 11:38:54;;;;;;;3.88;1.80;;;;;;;33.19;21.47;99859.59;5056755;28;20048;-66
2021/07/29 11:41:23;;;;;;;2.95;1.30;;;;;;;31.16;23.20;99856.44;5054918;28;20052;-65
2021/07/29 11:43:52;;;;;;;;;;;;;;;32.14;21.62;99854.88;5054091;28;20418;-65
2021/07/29 11:46:22;;;;;;;5.68;1.45;;;;;;;32.18;22.20;99863.34;5048737;28;19920;-65